Worland, WY

10:11 AM MST on December 29, 2014 (GMT -0700)
Worland Municipal | Change Station
CLOSE
Current Station
Airport
Location: Worland,
Elevation: 4226 ft
Nearby Weather Stations
Active Advisory: Winter Weather Advisory Active Notice: Public Information Statement

Elev 4226 ft 43.97 °N, 107.95 °W | Updated 18 minutes ago

Snow
Snow
9 °F
Feels Like -6 °F
N
12
Wind Variable Wind from NNW

Today
High -- | Low -- °F
--% Chance of Precip.
Yesterday
High -- | Low -- °F
Precip. -- in
7:46 AM 4:41 PM
First Quarter, 60% visible
Pressure 30.61 in
Visibility 2.0 miles
Clouds Mostly Cloudy 1900 ft
Overcast 3000 ft
Windchill -6 °F
Dew Point 3 °F
Humidity 77%
Rainfall 0.02 in
Snow Depth Not available.
UV 0 out of 12
Pollen .10 out of 12
Air Quality Not available.
Flu Activity Not available.
METAR KWRL 291653Z AUTO 33010KT 2SM -SN BKN019 OVC030 M13/M16 A3038 RMK AO2 SLP363 P0000 T11281161

More Conditions Fewer Conditions

Pressure 30.61 in
Visibility 2.0 miles
Clouds Mostly Cloudy 1900 ft
Overcast 3000 ft
Windchill -6 °F
Dew Point 3 °F
Humidity 77%
Rainfall 0.02 in
Snow Depth Not available.
UV 0 out of 12
Pollen .10 out of 12
Air Quality Not available.
Flu Activity Not available.
METAR KWRL 291653Z AUTO 33010KT 2SM -SN BKN019 OVC030 M13/M16 A3038 RMK AO2 SLP363 P0000 T11281161

More Conditions Fewer Conditions

10-Day Weather Forecast

Almanac

Astronomy

Dec. 29, 2014 Rise Set
Actual Time
Civil Twilight
Nautical Twilight
Astronomical Twilight
Moon
Length of Visible Light
Length of Day
Tomorrow will be .
, % of the Moon is Illuminated

Today's Extremes

State Highs State Lows

Community

WunderPhotos

Upload Photos

1,781,651 photos uploaded!

WunderBlogs® & News

Nearby

Air Quality

  Air Quality AQ Index Pollutant
Not available.

Snow Depth

Station Depth Elevation

Earthquake Activity

City Distance Mag. Time & Date
Minimum magnitude displayed is 2.5.

Coastal Water Temperatures

Place Temperature

Nearby Weather Stations